EGCC/MAN METAR and TAF weather

Enter ICAO airport designator
Station Type Date Time Source
EGCC METAR 2019/06/26 22:50 UTC NOAA

EGCC 262250Z AUTO 08003KT 9999 NCD 12/10 Q1032 NOSIG


Station Type Date Time Source
EGCC Decoded METAR 2019/06/26 22:50 UTC NOAA

Manchester Airport, United Kingdom (EGCC) 53-21N 002-17W 0M
Jun 26, 2019 - 06:50 PM EDT / 2019.06.26 2250 UTC
Wind: from the E (080 degrees) at 3 MPH (3 KT):0
Visibility: greater than 7 mile(s):0
Temperature: 53 F (12 C)
Dew Point: 50 F (10 C)
Relative Humidity: 87%
Pressure (altimeter): 30.47 in. Hg (1032 hPa)
ob: EGCC 262250Z AUTO 08003KT 9999 NCD 12/10 Q1032 NOSIG
cycle: 23

Station Type Date Time Source
EGCC TAF 2019/06/26 21:25 UTC NOAA

TAF
AMD EGCC 262118Z 2621/2724 07006KT 9999 SCT020
TEMPO 2621/2708 BKN014

Example: see airport list